Hauptseite
METAR-TAF:

METAR-TAF

Flughäfen :

Flughafen Yamagata

Yamagata, Japan

Breite: 38-25N, Länge: 140-22E, Höhe: 105 m

Beobachtung

Neuester Wetterbericht von vor 3 Stunden und 44 Minuten, um 10:00 UTC
Wind 11 kt aus Nord
Temperatur 13°C
Luftfeuchtigkeit 67%
Luftdruck 1017 hPa
Sichtweite 10 km oder mehr
Leicht bewölkt in der Höhe von 6000 ft

METAR: RJSC 251000Z 01011KT 9999 FEW060 13/07 Q1017

Zeit: 22:44 (13:44 UTC)


TAF: fehlend

Wetterbeobachtungen und Prognosen von mehr als 4000 Flughäfen (METAR und TAF Bericht).

Die verfügbaren Stationen werden durch gelbe und rote Markierungen auf der Karte dargestellt.

Führen Sie die Maus auf sie, um den Namen der Station zu sehen.

Darauf klicken, um die Beobachtung von Wetterbeobachtungen und Prognosen zu sehen.

Um die Karte zu ändern : klicken Sie auf den grünen Tasten mit einem schwarzen Kreuz Zum Vergrößern, auf den grünen Button mit einem Gedankenstrich zu verkleinern, oder auf die grünen Pfeile für benachbarte Karten.


METAR-TAF: